Time;durP1;ratioP1;P1;durP2;ratioP2;P2;SDS_P1;SDS_P2;PMS_P1;PMS_P2;Temp;Humidity;BMP_temperature;BMP_pressure;BME280_temperature;BME280_humidity;BME280_pressure;Samples;Min_cycle;Max_cycle;Signal;HPM_P1;HPM_P2
2023/08/25 00:00:04;;;;;;;141.68;42.17;;;23.60;99.90;;;;;;5144948;28;20023;-74
2023/08/25 00:02:38;;;;;;;22.55;9.13;;;23.50;99.90;;;;;;5144823;28;20027;-74
2023/08/25 00:05:10;;;;;;;9.02;8.13;;;23.50;99.90;;;;;;5144880;28;20027;-75
2023/08/25 00:07:41;;;;;;;48.35;18.58;;;23.50;99.90;;;;;;5144582;28;20039;-73
2023/08/25 00:10:12;;;;;;;13.63;9.32;;;23.50;99.90;;;;;;5143521;28;20031;-74
2023/08/25 00:12:43;;;;;;;22.98;8.90;;;23.60;99.90;;;;;;5144535;28;20031;-73
2023/08/25 00:15:14;;;;;;;8.80;7.97;;;23.50;99.90;;;;;;5144679;28;20382;-73
2023/08/25 00:17:44;;;;;;;9.32;7.95;;;23.50;99.90;;;;;;5148723;28;20015;-74
2023/08/25 00:20:16;;;;;;;8.35;7.55;;;23.60;99.90;;;;;;5148446;28;20023;-73
2023/08/25 00:22:47;;;;;;;9.85;7.70;;;23.60;99.90;;;;;;5147977;28;20022;-73
2023/08/25 00:25:17;;;;;;;8.05;6.75;;;23.60;99.90;;;;;;5146318;28;20023;-73
2023/08/25 00:27:48;;;;;;;8.60;7.47;;;23.60;99.90;;;;;;5147091;28;20038;-74
2023/08/25 00:30:19;;;;;;;7.75;7.05;;;23.60;99.90;;;;;;5147209;28;20034;-75
2023/08/25 00:32:50;;;;;;;204.75;187.27;;;23.60;99.90;;;;;;5147004;28;20034;-74
2023/08/25 00:35:21;;;;;;;19.77;17.65;;;23.60;99.90;;;;;;5146997;28;20383;-74
2023/08/25 00:37:52;;;;;;;9.05;7.50;;;23.70;99.90;;;;;;5146917;28;20521;-73
2023/08/25 00:40:23;;;;;;;7.93;7.18;;;23.70;99.90;;;;;;5147836;28;20030;-73
2023/08/25 00:42:53;;;;;;;8.35;7.28;;;23.60;99.90;;;;;;5147269;28;20038;-73
2023/08/25 00:45:24;;;;;;;6.90;6.15;;;23.70;99.90;;;;;;5148367;28;20031;-79
2023/08/25 00:47:55;;;;;;;24.77;8.05;;;23.60;99.90;;;;;;5148089;28;20046;-79
2023/08/25 00:50:28;;;;;;;7.25;6.35;;;23.80;99.90;;;;;;5148277;28;20027;-74
2023/08/25 00:53:01;;;;;;;22.13;20.13;;;23.80;99.90;;;;;;5148165;28;20030;-74
2023/08/25 00:55:32;;;;;;;7.93;6.75;;;23.70;99.90;;;;;;5147993;28;20038;-74
2023/08/25 00:58:05;;;;;;;18.23;9.20;;;23.70;99.90;;;;;;5148089;28;20027;-73
2023/08/25 01:00:37;;;;;;;7.95;6.40;;;23.60;99.90;;;;;;5148004;28;20015;-74
2023/08/25 01:03:08;;;;;;;10.02;8.43;;;23.70;99.90;;;;;;5147957;28;20026;-74
2023/08/25 01:05:39;;;;;;;11.88;9.68;;;23.60;99.90;;;;;;5147859;28;20027;-73
2023/08/25 01:08:10;;;;;;;7.40;6.78;;;23.60;99.90;;;;;;5147647;28;20043;-75
2023/08/25 01:11:07;;;;;;;11.07;7.72;;;23.60;99.90;;;;;;5147482;28;20549;-80
2023/08/25 01:14:03;;;;;;;52.30;19.35;;;23.60;99.90;;;;;;5128932;28;20471;-73
2023/08/25 01:16:44;;;;;;;65.38;20.33;;;23.70;99.90;;;;;;5147307;28;20061;-79
2023/08/25 01:19:51;;;;;;;12.48;6.60;;;23.60;99.90;;;;;;5147363;28;20026;-74
2023/08/25 01:22:40;;;;;;;13.80;8.90;;;23.70;99.90;;;;;;5146211;28;20413;-79
2023/08/25 01:25:32;;;;;;;10.13;6.82;;;23.70;99.90;;;;;;5146428;28;20065;-74
2023/08/25 01:28:04;;;;;;;7.72;7.03;;;23.60;99.90;;;;;;5145236;28;20390;-77
2023/08/25 01:30:36;;;;;;;7.93;7.22;;;23.60;99.90;;;;;;5153870;28;20030;-76
2023/08/25 01:33:06;;;;;;;8.85;7.22;;;23.50;99.90;;;;;;5166112;28;20027;-73
2023/08/25 01:36:08;;;;;;;21.45;6.97;;;23.50;99.90;;;;;;5166589;28;20360;-74
2023/08/25 01:39:13;;;;;;;7.93;7.13;;;23.50;99.90;;;;;;5167212;28;20050;-73
2023/08/25 01:41:57;;;;;;;9.70;8.60;;;23.60;99.90;;;;;;5167274;28;20042;-78
2023/08/25 01:44:30;;;;;;;7.93;6.90;;;23.70;99.90;;;;;;5167261;28;20459;-73
2023/08/25 01:47:06;;;;;;;8.95;7.22;;;23.60;99.90;;;;;;5167065;28;20031;-74
2023/08/25 01:49:38;;;;;;;7.85;7.05;;;23.60;99.90;;;;;;5167187;28;20035;-73
2023/08/25 01:52:12;;;;;;;223.40;53.10;;;23.60;99.90;;;;;;5167174;28;20037;-75
2023/08/25 01:54:44;;;;;;;7.97;7.18;;;23.50;99.90;;;;;;5167066;28;20073;-73
2023/08/25 01:57:14;;;;;;;8.63;6.80;;;23.50;99.90;;;;;;5167216;28;20037;-73
2023/08/25 01:59:46;;;;;;;7.57;6.47;;;23.50;99.90;;;;;;5167416;28;20030;-79
2023/08/25 02:02:17;;;;;;;8.40;6.85;;;23.50;99.90;;;;;;5166974;28;20027;-74
2023/08/25 02:04:48;;;;;;;16.90;14.40;;;23.50;99.90;;;;;;5166901;28;20014;-73
2023/08/25 02:07:18;;;;;;;9.65;8.20;;;23.40;99.90;;;;;;5166626;28;20561;-81
2023/08/25 02:09:53;;;;;;;7.80;7.10;;;23.30;99.90;;;;;;5165584;28;20048;-77
2023/08/25 02:12:24;;;;;;;7.60;6.95;;;23.40;99.90;;;;;;5166503;28;20018;-74
2023/08/25 02:14:54;;;;;;;8.13;7.05;;;23.40;99.90;;;;;;5166337;28;20036;-74
2023/08/25 02:17:25;;;;;;;16.55;10.60;;;23.40;99.90;;;;;;5165490;28;20061;-75
2023/08/25 02:19:56;;;;;;;9.98;7.20;;;23.40;99.90;;;;;;5165173;28;20034;-78
2023/08/25 02:22:27;;;;;;;8.45;7.57;;;23.40;99.90;;;;;;5165158;28;20022;-74
2023/08/25 02:24:58;;;;;;;25.88;8.38;;;23.30;99.90;;;;;;5163930;28;20360;-79
2023/08/25 02:27:29;;;;;;;14.10;12.50;;;23.20;99.90;;;;;;5164961;28;20758;-80
2023/08/25 02:30:00;;;;;;;7.53;6.72;;;23.30;99.90;;;;;;5179958;28;20034;-77
2023/08/25 02:32:30;;;;;;;10.48;7.25;;;23.40;99.90;;;;;;5165801;28;20470;-80
2023/08/25 02:35:01;;;;;;;12.68;7.05;;;23.30;99.90;;;;;;5166213;28;20018;-74
2023/08/25 02:37:32;;;;;;;8.75;6.93;;;23.30;99.90;;;;;;5165974;28;20046;-73
2023/08/25 02:40:04;;;;;;;7.95;7.15;;;23.30;99.90;;;;;;5165984;28;20030;-73
2023/08/25 02:42:35;;;;;;;7.18;6.55;;;23.40;99.90;;;;;;5166101;28;20026;-76
2023/08/25 02:45:06;;;;;;;7.00;6.40;;;23.20;99.90;;;;;;5166104;28;20024;-75
2023/08/25 02:47:37;;;;;;;7.05;6.38;;;23.20;99.90;;;;;;5165915;28;20387;-73
2023/08/25 02:50:08;;;;;;;7.70;6.85;;;23.30;99.90;;;;;;5164699;28;20027;-74
2023/08/25 02:52:39;;;;;;;7.15;6.55;;;23.20;99.90;;;;;;5165854;28;20034;-74
2023/08/25 02:55:11;;;;;;;6.90;6.35;;;23.30;99.90;;;;;;5165417;28;20034;-75
2023/08/25 02:57:46;;;;;;;12.00;7.18;;;23.30;99.90;;;;;;5165796;28;20028;-73
2023/08/25 03:00:23;;;;;;;7.70;6.90;;;23.10;99.90;;;;;;5165686;28;20029;-73
2023/08/25 03:02:54;;;;;;;7.78;6.60;;;23.10;99.90;;;;;;5165619;28;20023;-73
2023/08/25 03:05:25;;;;;;;7.68;6.40;;;23.10;99.90;;;;;;5165633;28;20037;-79
2023/08/25 03:07:56;;;;;;;6.78;6.07;;;23.20;99.90;;;;;;5165378;28;20043;-77
2023/08/25 03:10:27;;;;;;;8.73;5.50;;;23.00;99.90;;;;;;5164816;28;20023;-73
2023/08/25 03:12:58;;;;;;;8.02;6.70;;;23.10;99.90;;;;;;5163585;28;20068;-74
2023/08/25 03:15:29;;;;;;;6.63;5.97;;;23.10;99.90;;;;;;5164154;28;20089;-75
2023/08/25 03:18:00;;;;;;;8.32;6.30;;;23.10;99.90;;;;;;5164255;28;20371;-74
2023/08/25 03:20:31;;;;;;;6.20;5.70;;;23.10;99.90;;;;;;5164354;28;20037;-74
2023/08/25 03:23:02;;;;;;;6.80;6.07;;;23.10;99.90;;;;;;5164263;28;20026;-75
2023/08/25 03:25:37;;;;;;;7.95;6.57;;;23.10;99.90;;;;;;5164094;28;20081;-75
2023/08/25 03:28:08;;;;;;;8.00;5.97;;;23.30;99.90;;;;;;5164713;28;20034;-73
2023/08/25 03:30:39;;;;;;;7.90;7.10;;;23.20;99.90;;;;;;5165447;28;20033;-73
2023/08/25 03:33:10;;;;;;;7.35;6.75;;;23.20;99.90;;;;;;5583603;23;20146;-75
2023/08/25 03:35:41;;;;;;;7.70;7.05;;;23.00;99.90;;;;;;5145588;28;20064;-75
2023/08/25 03:38:11;;;;;;;8.57;7.15;;;23.00;99.90;;;;;;5180184;28;20026;-77
2023/08/25 03:40:43;;;;;;;9.30;8.27;;;23.10;99.90;;;;;;5165055;28;20022;-79
2023/08/25 03:43:13;;;;;;;8.18;7.53;;;23.00;99.90;;;;;;5147337;28;20027;-79
2023/08/25 03:45:44;;;;;;;7.97;7.22;;;23.10;99.90;;;;;;5145153;28;20019;-73
2023/08/25 03:48:15;;;;;;;8.50;7.78;;;23.00;99.90;;;;;;5143708;28;20479;-73
2023/08/25 03:50:47;;;;;;;9.68;8.82;;;23.10;99.90;;;;;;5144541;28;20023;-72
2023/08/25 03:53:18;;;;;;;9.07;8.27;;;23.20;99.90;;;;;;5144959;28;20093;-73
2023/08/25 03:55:49;;;;;;;9.43;8.52;;;23.20;99.90;;;;;;5144930;28;20031;-73
2023/08/25 03:58:20;;;;;;;8.60;7.90;;;23.30;99.90;;;;;;5152100;28;20077;-74
2023/08/25 04:00:54;;;;;;;12.00;7.88;;;23.30;99.90;;;;;;5164902;28;20033;-72
2023/08/25 04:03:25;;;;;;;9.25;8.45;;;23.20;99.90;;;;;;5164595;28;20038;-73
2023/08/25 04:05:56;;;;;;;9.15;8.25;;;23.20;99.90;;;;;;5163938;28;20028;-73
2023/08/25 04:08:27;;;;;;;9.27;8.48;;;23.10;99.90;;;;;;5164276;28;20034;-77
2023/08/25 04:10:58;;;;;;;8.52;7.70;;;23.30;99.90;;;;;;5163488;28;20554;-76
2023/08/25 04:13:28;;;;;;;15.52;7.50;;;23.30;99.90;;;;;;5178814;28;20105;-73
2023/08/25 04:16:02;;;;;;;7.38;6.78;;;23.40;99.90;;;;;;5163633;28;20187;-77
2023/08/25 04:18:32;;;;;;;6.70;6.20;;;23.40;99.90;;;;;;5163499;28;20015;-73
2023/08/25 04:21:03;;;;;;;10.90;6.72;;;23.50;99.90;;;;;;5163582;28;21018;-72
2023/08/25 04:23:35;;;;;;;7.28;6.55;;;23.50;99.90;;;;;;5163850;28;20023;-73
2023/08/25 04:26:06;;;;;;;6.80;6.20;;;23.60;99.90;;;;;;5164808;28;20027;-77
2023/08/25 04:28:37;;;;;;;6.78;6.10;;;23.60;99.90;;;;;;5149527;28;20043;-72
2023/08/25 04:31:08;;;;;;;7.28;6.45;;;23.70;99.90;;;;;;5163519;28;20336;-72
2023/08/25 04:33:39;;;;;;;9.13;5.47;;;23.80;99.90;;;;;;5158116;28;20055;-72
2023/08/25 04:36:11;;;;;;;7.60;5.80;;;23.90;99.90;;;;;;5144768;28;20034;-73
2023/08/25 04:38:42;;;;;;;7.18;5.95;;;24.10;99.90;;;;;;5144629;28;20427;-72
2023/08/25 04:41:13;;;;;;;6.40;5.78;;;24.00;99.90;;;;;;5150688;28;20026;-72
2023/08/25 04:43:44;;;;;;;8.55;6.30;;;24.10;99.90;;;;;;5163221;28;20022;-72
2023/08/25 04:46:15;;;;;;;8.38;6.00;;;24.20;99.90;;;;;;5164472;28;20037;-74
2023/08/25 04:48:46;;;;;;;10.60;6.20;;;24.30;99.90;;;;;;5157859;28;20040;-72
2023/08/25 04:51:17;;;;;;;9.23;5.97;;;24.40;99.90;;;;;;5151922;28;20033;-73
2023/08/25 04:53:48;;;;;;;8.48;5.28;;;24.50;99.90;;;;;;5153185;28;20034;-72
2023/08/25 04:56:19;;;;;;;12.70;6.57;;;24.70;99.90;;;;;;5151964;28;20014;-72
2023/08/25 04:58:49;;;;;;;13.20;6.03;;;24.70;99.90;;;;;;5154315;28;20453;-74
2023/08/25 05:01:20;;;;;;;22.77;7.43;;;24.90;99.90;;;;;;5152808;28;20038;-78
2023/08/25 05:03:51;;;;;;;20.33;6.60;;;24.80;99.90;;;;;;5154530;28;20046;-73
2023/08/25 05:06:22;;;;;;;13.27;5.80;;;25.00;99.90;;;;;;5155187;28;20442;-73
2023/08/25 05:08:54;;;;;;;14.68;6.22;;;25.10;99.90;;;;;;5156743;28;20077;-73
2023/08/25 05:11:25;;;;;;;13.15;5.75;;;25.30;99.90;;;;;;5157258;28;20025;-73
2023/08/25 05:13:56;;;;;;;6.00;5.53;;;25.30;99.90;;;;;;5155947;28;20109;-72
2023/08/25 05:16:27;;;;;;;12.55;5.57;;;25.50;99.90;;;;;;5157584;28;20489;-72
2023/08/25 05:19:01;;;;;;;10.35;5.53;;;25.50;99.90;;;;;;5155360;28;20038;-74
2023/08/25 05:21:31;;;;;;;12.60;6.88;;;25.50;99.90;;;;;;5154047;28;20030;-73
2023/08/25 05:24:23;;;;;;;10.23;5.70;;;25.50;99.90;;;;;;5156031;28;20387;-78
2023/08/25 05:26:54;;;;;;;6.72;4.97;;;25.70;99.90;;;;;;5153367;28;20026;-75
2023/08/25 05:29:27;;;;;;;8.05;5.53;;;25.70;99.90;;;;;;5154997;28;20518;-79
2023/08/25 05:31:59;;;;;;;8.63;5.97;;;25.80;99.90;;;;;;5154543;28;20106;-73
2023/08/25 05:34:31;;;;;;;6.47;5.38;;;25.90;99.90;;;;;;5156258;28;20026;-73
2023/08/25 05:37:02;;;;;;;7.22;5.47;;;25.90;99.90;;;;;;5156146;28;20030;-74
2023/08/25 05:39:33;;;;;;;7.15;5.05;;;25.90;99.90;;;;;;5155144;28;20026;-73
2023/08/25 05:42:04;;;;;;;6.40;5.22;;;26.00;99.90;;;;;;5154336;28;20023;-73
2023/08/25 05:44:35;;;;;;;8.27;5.45;;;25.90;99.90;;;;;;5155883;28;20032;-73
2023/08/25 05:47:06;;;;;;;7.95;6.20;;;26.00;99.90;;;;;;5157608;28;20027;-73
2023/08/25 05:49:37;;;;;;;9.38;6.47;;;26.00;99.90;;;;;;5155730;28;20618;-73
2023/08/25 05:52:08;;;;;;;8.50;6.32;;;26.00;99.90;;;;;;5158720;28;20034;-73
2023/08/25 05:54:39;;;;;;;7.95;5.65;;;25.90;99.90;;;;;;5157196;28;20370;-73
2023/08/25 05:57:10;;;;;;;8.05;7.25;;;25.90;99.90;;;;;;5146739;28;20026;-74
2023/08/25 05:59:41;;;;;;;8.02;7.18;;;26.10;99.90;;;;;;5155433;28;20096;-73
2023/08/25 06:02:13;;;;;;;7.53;6.72;;;26.30;99.90;;;;;;5144658;28;20039;-73
2023/08/25 06:04:44;;;;;;;8.25;5.90;;;26.20;99.90;;;;;;5144921;28;20026;-73
2023/08/25 06:07:14;;;;;;;8.75;5.18;;;26.20;99.90;;;;;;5144927;28;20379;-72
2023/08/25 06:09:45;;;;;;;7.63;5.88;;;26.50;99.90;;;;;;5146766;28;20404;-73
2023/08/25 06:12:16;;;;;;;7.65;6.10;;;26.60;99.90;;;;;;5146701;28;20023;-72
2023/08/25 06:14:47;;;;;;;7.50;6.90;;;26.80;99.90;;;;;;5146095;28;20039;-73
2023/08/25 06:17:18;;;;;;;8.18;5.57;;;26.70;99.90;;;;;;5145901;28;20573;-73
2023/08/25 06:19:49;;;;;;;5.88;5.38;;;26.80;99.90;;;;;;5146251;28;20070;-73
2023/08/25 06:22:20;;;;;;;6.82;5.32;;;27.00;99.90;;;;;;5145665;28;20038;-74
2023/08/25 06:24:51;;;;;;;6.18;5.40;;;27.00;99.90;;;;;;5145057;28;20034;-72
2023/08/25 06:27:22;;;;;;;10.25;6.15;;;27.00;99.90;;;;;;5146228;28;20383;-72
2023/08/25 06:29:53;;;;;;;7.93;5.25;;;27.20;99.90;;;;;;5146350;28;20039;-72
2023/08/25 06:32:24;;;;;;;6.80;5.20;;;27.30;99.90;;;;;;5145906;28;20403;-73
2023/08/25 06:34:55;;;;;;;8.07;6.28;;;27.30;99.90;;;;;;5146219;28;20035;-74
2023/08/25 06:37:25;;;;;;;7.85;5.53;;;27.30;99.90;;;;;;5146184;28;20023;-73
2023/08/25 06:39:56;;;;;;;13.60;5.32;;;27.40;99.90;;;;;;5145440;28;20110;-74
2023/08/25 06:42:27;;;;;;;6.93;5.82;;;27.50;99.90;;;;;;5145732;28;20089;-73
2023/08/25 06:44:58;;;;;;;10.00;6.80;;;27.50;99.90;;;;;;5144756;28;20030;-73
2023/08/25 06:47:30;;;;;;;7.88;7.18;;;27.60;99.90;;;;;;5144553;28;20435;-73
2023/08/25 06:50:02;;;;;;;11.65;6.72;;;27.70;99.90;;;;;;5144780;28;20019;-73
2023/08/25 06:52:33;;;;;;;6.10;5.60;;;27.70;99.90;;;;;;5144605;28;20471;-74
2023/08/25 06:55:04;;;;;;;6.45;5.43;;;27.70;99.90;;;;;;5159423;28;20034;-75
2023/08/25 06:57:35;;;;;;;6.03;5.15;;;27.90;99.90;;;;;;5151195;28;20394;-74
2023/08/25 07:00:07;;;;;;;8.48;4.82;;;28.00;99.90;;;;;;5166406;28;20057;-73
2023/08/25 07:02:40;;;;;;;8.73;5.95;;;28.00;99.90;;;;;;5150078;28;20038;-73
2023/08/25 07:05:13;;;;;;;8.80;7.35;;;28.10;99.90;;;;;;5145723;28;20022;-73
2023/08/25 07:07:44;;;;;;;8.43;6.70;;;28.20;99.90;;;;;;5145779;28;20039;-73
2023/08/25 07:10:15;;;;;;;11.40;7.53;;;28.20;99.90;;;;;;5145452;28;20112;-74
2023/08/25 07:12:46;;;;;;;9.27;8.05;;;28.30;99.90;;;;;;5145065;28;20062;-73
2023/08/25 07:15:16;;;;;;;9.35;8.27;;;28.20;99.90;;;;;;5143390;28;20125;-73
2023/08/25 07:17:47;;;;;;;9.32;6.53;;;28.30;99.90;;;;;;5145549;28;20057;-73
2023/08/25 07:20:19;;;;;;;8.27;7.40;;;28.30;99.90;;;;;;5145533;28;20023;-73
2023/08/25 07:22:50;;;;;;;8.88;5.65;;;28.40;99.90;;;;;;5145383;28;20027;-74
2023/08/25 07:25:21;;;;;;;12.23;5.88;;;28.50;99.90;;;;;;5144762;28;20033;-73
2023/08/25 07:27:52;;;;;;;10.50;6.07;;;28.60;99.90;;;;;;5145241;28;20031;-73
2023/08/25 07:30:23;;;;;;;13.43;5.88;;;28.60;99.90;;;;;;5160528;28;20041;-73
2023/08/25 07:32:54;;;;;;;7.53;4.60;;;28.60;99.90;;;;;;5164625;28;20058;-73
2023/08/25 07:35:24;;;;;;;15.45;5.53;;;28.50;99.90;;;;;;5165252;28;20375;-73
2023/08/25 07:37:56;;;;;;;28.80;5.90;;;28.70;99.90;;;;;;5165243;28;20076;-73
2023/08/25 07:40:27;;;;;;;9.38;4.72;;;28.60;99.90;;;;;;5165304;28;20033;-73
2023/08/25 07:43:01;;;;;;;7.15;4.13;;;28.70;99.90;;;;;;5165055;28;20049;-75
2023/08/25 07:45:32;;;;;;;5.93;3.88;;;28.70;99.90;;;;;;5165083;28;20023;-72
2023/08/25 07:48:03;;;;;;;6.65;4.45;;;28.80;99.90;;;;;;5164910;28;20030;-73
2023/08/25 07:50:34;;;;;;;8.60;4.25;;;28.80;99.90;;;;;;5165051;28;20548;-72
2023/08/25 07:53:06;;;;;;;7.82;4.50;;;28.90;99.90;;;;;;5164996;28;20088;-74
2023/08/25 07:55:39;;;;;;;8.38;4.00;;;29.10;99.90;;;;;;5164700;28;20055;-73
2023/08/25 07:58:10;;;;;;;5.25;4.55;;;29.00;99.90;;;;;;5164755;28;20022;-73
2023/08/25 08:00:42;;;;;;;6.68;4.88;;;29.00;99.90;;;;;;5164588;28;20022;-73
2023/08/25 08:03:14;;;;;;;9.25;4.40;;;29.10;99.90;;;;;;5164204;28;20077;-76
2023/08/25 08:05:45;;;;;;;8.13;5.40;;;29.20;99.90;;;;;;5164009;28;20030;-73
2023/08/25 08:08:16;;;;;;;8.30;4.95;;;29.00;99.90;;;;;;5165015;28;20045;-74
2023/08/25 08:10:47;;;;;;;6.53;5.28;;;29.20;99.90;;;;;;5163789;28;20490;-73
2023/08/25 08:13:18;;;;;;;5.93;5.13;;;29.30;99.90;;;;;;5165179;28;20109;-77
2023/08/25 08:15:49;;;;;;;6.40;5.10;;;29.30;99.90;;;;;;5164932;28;20026;-75
2023/08/25 08:18:20;;;;;;;5.78;4.32;;;29.50;99.90;;;;;;5164896;28;20054;-75
2023/08/25 08:20:50;;;;;;;7.65;5.20;;;29.60;99.90;;;;;;5164627;28;20378;-73
2023/08/25 08:23:21;;;;;;;5.93;4.55;;;29.40;99.90;;;;;;5164807;28;20475;-73
2023/08/25 08:25:54;;;;;;;6.30;4.55;;;29.40;99.90;;;;;;5163507;28;20532;-74
2023/08/25 08:28:25;;;;;;;11.90;5.32;;;29.50;99.90;;;;;;5164709;28;20031;-73
2023/08/25 08:30:58;;;;;;;6.80;4.78;;;29.50;99.90;;;;;;5164919;28;20032;-77
2023/08/25 08:33:29;;;;;;;6.20;4.22;;;29.40;99.90;;;;;;5164236;28;20376;-73
2023/08/25 08:36:00;;;;;;;7.38;3.50;;;29.40;99.90;;;;;;5164672;28;20041;-73
2023/08/25 08:38:31;;;;;;;5.72;3.97;;;29.50;99.90;;;;;;5168371;28;20414;-73
2023/08/25 08:41:03;;;;;;;8.13;4.25;;;29.40;99.90;;;;;;5168448;28;20081;-77
2023/08/25 08:43:38;;;;;;;7.15;4.30;;;29.60;99.90;;;;;;5168325;28;20098;-74
2023/08/25 08:46:12;;;;;;;10.27;3.80;;;29.80;99.90;;;;;;5168007;28;20110;-73
2023/08/25 08:48:43;;;;;;;5.80;4.05;;;29.80;99.90;;;;;;5167865;28;20124;-73
2023/08/25 08:51:16;;;;;;;4.63;3.58;;;29.90;99.90;;;;;;5168262;28;20364;-77
2023/08/25 08:53:49;;;;;;;7.57;4.28;;;30.00;99.90;;;;;;5168282;28;20367;-72
2023/08/25 08:56:20;;;;;;;6.05;4.03;;;30.10;99.90;;;;;;5167967;28;20034;-73
2023/08/25 08:58:51;;;;;;;4.97;3.53;;;30.00;99.90;;;;;;5167633;28;20073;-73
2023/08/25 09:01:22;;;;;;;4.93;3.42;;;30.00;99.90;;;;;;5167024;28;20069;-75
2023/08/25 09:03:53;;;;;;;4.97;3.63;;;30.10;99.90;;;;;;5166808;28;20733;-75
2023/08/25 09:06:26;;;;;;;10.73;3.58;;;30.20;99.90;;;;;;5166613;28;20034;-74
2023/08/25 09:08:59;;;;;;;10.38;3.40;;;30.30;99.90;;;;;;5165187;28;20065;-73
2023/08/25 09:11:30;;;;;;;8.25;3.72;;;30.30;99.90;;;;;;5165816;28;20034;-73
2023/08/25 09:14:04;;;;;;;5.38;3.55;;;30.40;99.90;;;;;;5166322;28;20407;-76
2023/08/25 09:16:37;;;;;;;5.80;3.22;;;30.60;99.90;;;;;;5167374;28;20026;-75
2023/08/25 09:19:13;;;;;;;4.95;3.30;;;30.50;99.90;;;;;;5182917;28;20027;-72
2023/08/25 09:21:48;;;;;;;6.10;3.75;;;30.40;99.90;;;;;;5167795;28;20023;-72
2023/08/25 09:24:20;;;;;;;6.85;4.20;;;30.40;99.90;;;;;;5167658;28;20042;-73
2023/08/25 09:26:51;;;;;;;10.13;3.67;;;30.20;99.90;;;;;;5166317;28;20041;-73
2023/08/25 09:29:25;;;;;;;5.13;3.45;;;30.40;99.90;;;;;;5167501;28;20039;-72
2023/08/25 09:31:56;;;;;;;7.72;4.03;;;30.50;99.90;;;;;;5167220;28;20030;-72
2023/08/25 09:34:27;;;;;;;4.15;3.25;;;30.60;99.90;;;;;;5167800;28;20022;-74
2023/08/25 09:36:57;;;;;;;5.63;3.42;;;30.50;99.90;;;;;;5167902;28;20069;-72
2023/08/25 09:39:28;;;;;;;5.82;4.25;;;30.40;99.90;;;;;;5167627;28;20080;-73
2023/08/25 09:42:06;;;;;;;6.32;3.60;;;30.50;99.90;;;;;;5167506;28;20117;-75
2023/08/25 09:44:38;;;;;;;8.45;3.42;;;30.60;99.90;;;;;;5167552;28;20541;-72
2023/08/25 09:47:09;;;;;;;8.93;4.03;;;30.60;99.90;;;;;;5167150;28;20027;-74
2023/08/25 09:49:42;;;;;;;7.80;3.22;;;30.70;99.90;;;;;;5166530;28;20030;-72
2023/08/25 09:52:16;;;;;;;8.63;3.50;;;30.70;99.90;;;;;;5165973;28;20466;-73
2023/08/25 09:54:49;;;;;;;4.50;3.50;;;30.80;99.90;;;;;;5166471;28;20590;-72
2023/08/25 09:57:23;;;;;;;5.25;3.65;;;30.90;99.90;;;;;;5166305;28;20367;-73
2023/08/25 09:59:55;;;;;;;7.50;3.85;;;30.90;99.90;;;;;;5167061;28;20474;-73
2023/08/25 10:02:26;;;;;;;4.75;4.10;;;30.80;99.90;;;;;;5166752;28;20030;-73
2023/08/25 10:04:59;;;;;;;8.55;4.28;;;31.10;99.90;;;;;;5166791;28;20038;-75
2023/08/25 10:07:31;;;;;;;4.15;3.78;;;31.00;99.90;;;;;;5165468;28;20501;-74
2023/08/25 10:10:02;;;;;;;8.95;4.30;;;31.00;99.90;;;;;;5166880;28;20022;-72
2023/08/25 10:12:35;;;;;;;8.38;3.70;;;31.10;99.90;;;;;;5165563;28;20499;-73
2023/08/25 10:15:09;;;;;;;13.48;3.95;;;31.20;99.90;;;;;;5166704;28;20053;-71
2023/08/25 10:17:41;;;;;;;6.47;3.80;;;31.20;99.90;;;;;;5165298;28;20036;-72
2023/08/25 10:20:16;;;;;;;9.10;4.20;;;31.10;99.90;;;;;;5166572;28;20056;-71
2023/08/25 10:22:49;;;;;;;8.38;3.38;;;31.10;99.90;;;;;;5181980;28;20482;-71
2023/08/25 10:25:21;;;;;;;9.60;4.05;;;31.30;99.90;;;;;;5165124;28;20030;-74
2023/08/25 10:27:52;;;;;;;6.28;4.00;;;31.30;99.90;;;;;;5166350;28;20038;-74
2023/08/25 10:30:24;;;;;;;5.88;4.60;;;31.40;99.90;;;;;;5166468;28;20026;-73
2023/08/25 10:33:08;;;;;;;8.15;4.45;;;31.30;99.90;;;;;;5164794;28;20645;-73
2023/08/25 10:35:49;;;;;;;6.30;3.85;;;31.40;99.90;;;;;;5166343;28;20028;-74
2023/08/25 10:38:19;;;;;;;5.28;4.00;;;31.50;99.90;;;;;;5166322;28;20041;-74
2023/08/25 10:40:52;;;;;;;7.50;4.32;;;31.40;99.90;;;;;;5166259;28;20026;-75
2023/08/25 10:43:46;;;;;;;9.82;4.10;;;31.50;99.90;;;;;;5164383;28;20027;-74
2023/08/25 10:46:20;;;;;;;9.32;4.07;;;31.60;99.90;;;;;;5155216;28;20023;-72
2023/08/25 10:49:06;;;;;;;10.63;4.20;;;31.50;99.90;;;;;;5145433;28;20039;-73
2023/08/25 10:51:37;;;;;;;6.35;3.85;;;31.60;99.90;;;;;;5145630;28;20027;-72
2023/08/25 10:54:18;;;;;;;6.47;3.92;;;31.40;99.90;;;;;;5144586;28;20019;-72
2023/08/25 10:56:49;;;;;;;6.82;3.90;;;31.40;99.90;;;;;;5144460;28;20031;-76
2023/08/25 10:59:21;;;;;;;8.30;3.88;;;31.50;99.90;;;;;;5161446;28;20048;-77
2023/08/25 11:01:57;;;;;;;6.43;3.70;;;31.70;99.90;;;;;;5164346;28;20038;-73
2023/08/25 11:04:29;;;;;;;6.25;4.15;;;31.70;99.90;;;;;;5163186;28;20024;-72
2023/08/25 11:07:00;;;;;;;6.47;4.30;;;31.70;99.90;;;;;;5164386;28;20553;-74
2023/08/25 11:09:33;;;;;;;5.70;3.67;;;31.70;99.90;;;;;;5165740;28;20382;-72
2023/08/25 11:12:06;;;;;;;6.38;3.33;;;31.70;99.90;;;;;;5164508;28;20336;-72
2023/08/25 11:14:39;;;;;;;6.03;3.47;;;31.90;99.90;;;;;;5165625;28;20458;-72
2023/08/25 11:17:10;;;;;;;7.35;3.30;;;31.90;99.90;;;;;;5165557;28;20038;-72
2023/08/25 11:19:42;;;;;;;7.93;3.28;;;31.90;99.90;;;;;;5165446;28;20053;-73
2023/08/25 11:22:13;;;;;;;5.97;3.67;;;31.70;99.90;;;;;;5165392;28;20037;-74
2023/08/25 11:24:44;;;;;;;5.18;3.17;;;31.50;99.90;;;;;;5164101;28;20376;-72
2023/08/25 11:27:16;;;;;;;6.07;2.92;;;31.70;99.90;;;;;;5164032;28;20038;-75
2023/08/25 11:29:49;;;;;;;4.65;3.53;;;31.80;99.90;;;;;;5164109;28;20038;-72
2023/08/25 11:32:20;;;;;;;5.50;3.10;;;31.60;99.90;;;;;;5163683;28;20502;-75
2023/08/25 11:34:50;;;;;;;7.50;3.58;;;31.60;99.90;;;;;;5163869;28;20030;-77
2023/08/25 11:37:21;;;;;;;8.43;3.40;;;31.60;99.90;;;;;;5164228;28;20014;-72
2023/08/25 11:39:54;;;;;;;4.70;3.50;;;31.80;99.90;;;;;;5165003;28;20058;-71
2023/08/25 11:42:25;;;;;;;9.80;3.80;;;31.80;99.90;;;;;;5165243;28;20026;-72
2023/08/25 11:44:56;;;;;;;7.93;3.33;;;31.80;99.90;;;;;;5165306;28;20101;-72
2023/08/25 11:47:27;;;;;;;9.15;3.22;;;31.70;99.90;;;;;;5164159;28;20117;-71
2023/08/25 11:50:00;;;;;;;5.68;3.42;;;31.60;99.90;;;;;;5165223;28;20074;-74
2023/08/25 11:52:34;;;;;;;4.20;2.97;;;31.60;99.90;;;;;;5165192;28;20081;-73
2023/08/25 11:55:06;;;;;;;4.85;3.08;;;31.80;99.90;;;;;;5165090;28;20061;-74
2023/08/25 11:57:38;;;;;;;6.80;3.30;;;31.80;99.90;;;;;;5165184;28;20046;-72
2023/08/25 12:00:10;;;;;;;5.32;3.25;;;31.70;99.90;;;;;;5165334;28;20106;-72
2023/08/25 12:02:41;;;;;;;7.57;3.30;;;31.70;99.90;;;;;;5164955;28;20439;-71
2023/08/25 12:05:12;;;;;;;7.13;3.10;;;31.60;99.90;;;;;;5164905;28;20116;-72
2023/08/25 12:07:43;;;;;;;5.15;3.17;;;31.80;99.90;;;;;;5160426;28;20034;-73
2023/08/25 12:10:19;;;;;;;5.88;3.25;;;31.70;99.90;;;;;;5156245;28;20042;-71
2023/08/25 12:12:53;;;;;;;7.50;3.28;;;31.70;99.90;;;;;;5166972;28;20030;-72
2023/08/25 12:15:24;;;;;;;4.75;3.00;;;31.80;99.90;;;;;;5164800;28;20381;-72
2023/08/25 12:17:59;;;;;;;6.22;3.30;;;31.90;99.90;;;;;;5159123;28;20022;-72
2023/08/25 12:20:30;;;;;;;6.00;3.22;;;31.90;99.90;;;;;;5147603;28;20065;-73
2023/08/25 12:23:01;;;;;;;11.88;3.63;;;31.70;99.90;;;;;;5147477;28;20110;-75
2023/08/25 12:25:32;;;;;;;6.32;3.20;;;31.50;99.90;;;;;;5150892;28;20037;-74
2023/08/25 12:28:03;;;;;;;5.25;3.03;;;31.30;99.90;;;;;;5155334;28;20479;-72
2023/08/25 12:30:34;;;;;;;3.88;3.33;;;31.60;99.90;;;;;;5164429;28;20038;-72
2023/08/25 12:33:05;;;;;;;10.75;3.85;;;31.60;99.90;;;;;;5159313;28;20051;-72
2023/08/25 12:35:37;;;;;;;6.45;2.90;;;31.70;99.90;;;;;;5158566;28;20027;-73
2023/08/25 12:38:07;;;;;;;5.82;3.30;;;31.70;99.90;;;;;;5167272;28;20035;-71
2023/08/25 12:40:39;;;;;;;6.85;3.10;;;31.60;99.90;;;;;;5168596;28;20022;-73
2023/08/25 12:43:10;;;;;;;7.10;3.13;;;31.60;99.90;;;;;;5168375;28;20038;-73
2023/08/25 12:45:41;;;;;;;4.68;2.80;;;31.80;99.90;;;;;;5165844;28;20026;-73
2023/08/25 12:48:12;;;;;;;5.93;3.05;;;31.80;99.90;;;;;;5154121;28;20046;-72
2023/08/25 12:50:44;;;;;;;3.58;2.92;;;31.80;99.90;;;;;;5157684;28;20026;-72
2023/08/25 12:53:15;;;;;;;4.75;3.25;;;31.70;99.90;;;;;;5163512;28;20026;-73
2023/08/25 12:55:45;;;;;;;4.22;3.20;;;31.60;99.90;;;;;;5162495;28;20033;-72
2023/08/25 12:58:16;;;;;;;4.78;3.17;;;31.80;99.90;;;;;;5168104;28;20032;-72
2023/08/25 13:00:47;;;;;;;8.38;3.03;;;31.50;99.90;;;;;;5166957;28;20389;-72
2023/08/25 13:03:19;;;;;;;6.85;3.10;;;31.70;99.90;;;;;;5167505;28;20027;-72
2023/08/25 13:05:50;;;;;;;10.38;3.42;;;31.60;99.90;;;;;;5167781;28;20092;-72
2023/08/25 13:08:21;;;;;;;8.00;3.42;;;31.70;99.90;;;;;;5166818;28;20034;-72
2023/08/25 13:10:52;;;;;;;7.20;3.20;;;31.60;99.90;;;;;;5166732;28;20030;-72